Accueil
METAR-TAF:

METAR-TAF

Aéroports :

Alofi, Niue

Aéroport international de Niue

latitude: 19-04S, longitude: 169-55W, altitude: 20 m

Observation

Le bulletin a été fait il y a 1 heure et 5 minutes, à 06:00 UTC
Vent 5 kt de est
Température 23°C
Humidité 89%
Pression 1015 hPa

METAR: NIUE 270600Z AUTO 09005KT //// ////// 23/21 Q1015

Heure: 20:05 (07:05 UTC)

Prévision

Le bulletin a été fait il y a 1 heure et 44 minutes, à 05:21 UTC
Prévision valable du 27 à 06 UTC au 28 à 06 UTC
Vent 8 kt de est/sud-est
Visibilité 10 km ou plus
Nuages épars à une hauteur de 1800 ft

TAF: NIUE 270521Z 2706/2806 12008KT 9999 SCT018

Observations et prévisions météorologiques de plus de 4000 aéroports (messages METAR et TAF).

Les stations disponibles sont représentées par des disques jaunes et rouges sur la carte.

Passer la souris dessus pour voir le nom de la station.

Cliquer dessus pour voir les observations et prévisions météorologiques.

Pour changer de carte: cliquez sur les boutons verts avec une croix noire pour zoomer, sur le bouton vert avec un tiret pour effectuer un zoom arrière, ou sur les flèches vertes pour les cartes adjacentes.


METAR-TAF: